Time;durP1;ratioP1;P1;durP2;ratioP2;P2;SDS_P1;SDS_P2;PMS_P1;PMS_P2;Temp;Humidity;BMP_temperature;BMP_pressure;BME280_temperature;BME280_humidity;BME280_pressure;Samples;Min_cycle;Max_cycle;Signal;HPM_P1;HPM_P2
2022/08/30 00:03:26;;;;;;;12.13;8.13;;;;;;;;;;4962150;28;20432;-74
2022/08/30 00:05:53;;;;;;;10.50;8.27;;;15.60;99.90;;;;;;4962104;28;20428;-74
2022/08/30 00:08:19;;;;;;;12.93;7.97;;;;;;;;;;4988621;28;20400;-74
2022/08/30 00:10:45;;;;;;;10.03;7.90;;;;;;;;;;4971526;28;20485;-74
2022/08/30 00:13:13;;;;;;;11.18;8.20;;;15.30;99.90;;;;;;4995315;28;20451;-74
2022/08/30 00:15:40;;;;;;;10.77;7.93;;;15.50;99.90;;;;;;4989016;28;20419;-74
2022/08/30 00:18:06;;;;;;;10.07;7.80;;;15.40;99.90;;;;;;4988384;28;20808;-74
2022/08/30 00:20:33;;;;;;;10.88;8.07;;;15.60;99.90;;;;;;4991857;28;20470;-74
2022/08/30 00:23:00;;;;;;;10.52;8.23;;;;;;;;;;4975937;28;20513;-78
2022/08/30 00:25:26;;;;;;;12.32;9.02;;;;;;;;;;5006688;28;20496;-78
2022/08/30 00:27:52;;;;;;;13.90;8.95;;;;;;;;;;5006844;28;20433;-78
2022/08/30 00:30:19;;;;;;;12.65;8.57;;;;;;;;;;4970057;28;20945;-78
2022/08/30 00:32:45;;;;;;;10.82;8.98;;;;;;;;;;4989300;28;20414;-78
2022/08/30 00:35:14;;;;;;;12.15;8.35;;;15.40;99.90;;;;;;4973108;28;20416;-78
2022/08/30 00:37:40;;;;;;;12.18;8.77;;;15.50;99.90;;;;;;4956591;28;20423;-77
2022/08/30 00:40:08;;;;;;;10.73;7.82;;;;;;;;;;4955793;28;20435;-78
2022/08/30 00:42:34;;;;;;;12.43;8.55;;;;;;;;;;4990961;28;20410;-76
2022/08/30 00:45:00;;;;;;;12.17;8.03;;;;;;;;;;4984849;28;20833;-77
2022/08/30 00:47:26;;;;;;;12.25;8.35;;;15.30;99.90;;;;;;4972608;28;20426;-77
2022/08/30 00:49:55;;;;;;;14.25;8.57;;;15.50;99.90;;;;;;4968721;28;20521;-78
2022/08/30 00:52:21;;;;;;;11.02;8.60;;;;;;;;;;4975601;28;20406;-77
2022/08/30 00:54:50;;;;;;;10.98;8.60;;;15.40;99.90;;;;;;4971287;28;20541;-77
2022/08/30 00:57:16;;;;;;;12.98;9.13;;;;;;;;;;4974706;28;20429;-77
2022/08/30 00:59:45;;;;;;;12.65;8.60;;;15.50;99.90;;;;;;4988337;28;20744;-76
2022/08/30 01:02:11;;;;;;;11.10;8.68;;;;;;;;;;4958713;28;20469;-76
2022/08/30 01:04:41;;;;;;;12.77;8.73;;;15.40;99.90;;;;;;4989245;28;20528;-77
2022/08/30 01:07:07;;;;;;;11.82;8.20;;;;;;;;;;4975582;28;20824;-77
2022/08/30 01:09:34;;;;;;;14.07;8.65;;;15.50;99.90;;;;;;5004321;28;20438;-76
2022/08/30 01:12:00;;;;;;;13.90;9.40;;;15.10;99.90;;;;;;4989500;28;20516;-77
2022/08/30 01:14:27;;;;;;;13.70;9.23;;;;;;;;;;4971629;28;20511;-77
2022/08/30 01:16:54;;;;;;;11.35;8.70;;;;;;;;;;4947811;28;20431;-77
2022/08/30 01:19:34;;;;;;;12.23;8.73;;;15.20;99.90;;;;;;4967231;28;20437;-77
2022/08/30 01:22:07;;;;;;;13.73;9.53;;;15.30;99.90;;;;;;4972128;28;20474;-77
2022/08/30 01:24:33;;;;;;;15.68;9.50;;;15.30;99.90;;;;;;4973033;28;20434;-78
2022/08/30 01:27:00;;;;;;;10.98;9.00;;;;;;;;;;4981002;28;20450;-78
2022/08/30 01:29:26;;;;;;;10.73;8.70;;;;;;;;;;4961043;28;20456;-78
2022/08/30 01:31:52;;;;;;;9.55;8.50;;;15.30;99.90;;;;;;4969135;28;20434;-78
2022/08/30 01:34:18;;;;;;;13.60;9.50;;;15.20;99.90;;;;;;4973868;28;20425;-78
2022/08/30 01:36:46;;;;;;;14.15;8.95;;;15.10;99.90;;;;;;4991221;28;20460;-78
2022/08/30 01:39:15;;;;;;;10.70;8.90;;;15.20;99.90;;;;;;4972007;28;20509;-78
2022/08/30 01:41:42;;;;;;;11.48;9.02;;;;;;;;;;4966156;28;20581;-74
2022/08/30 01:44:09;;;;;;;11.98;8.70;;;;;;;;;;4972986;28;20506;-73
2022/08/30 01:46:38;;;;;;;11.23;8.87;;;15.20;99.90;;;;;;4964096;28;20777;-74
2022/08/30 01:49:09;;;;;;;11.15;8.32;;;15.10;99.90;;;;;;4973739;28;20902;-75
2022/08/30 01:51:36;;;;;;;10.98;8.77;;;15.50;99.90;;;;;;4972550;28;20426;-74
2022/08/30 01:54:02;;;;;;;12.45;8.80;;;;;;;;;;4986858;28;20440;-75
2022/08/30 01:56:28;;;;;;;13.18;8.57;;;15.30;99.90;;;;;;4978164;28;20420;-74
2022/08/30 01:58:55;;;;;;;10.73;8.27;;;;;;;;;;4972551;28;21235;-74
2022/08/30 02:01:24;;;;;;;10.75;8.43;;;15.40;99.90;;;;;;4974453;28;20489;-75
2022/08/30 02:03:53;;;;;;;11.65;8.50;;;;;;;;;;4986649;28;20770;-74
2022/08/30 02:06:19;;;;;;;9.27;8.15;;;15.30;99.90;;;;;;4973076;28;20773;-75
2022/08/30 02:08:46;;;;;;;10.63;8.35;;;;;;;;;;4971106;28;20421;-74
2022/08/30 02:11:13;;;;;;;11.15;8.60;;;15.10;99.90;;;;;;4968589;28;20552;-74
2022/08/30 02:13:40;;;;;;;12.35;8.40;;;;;;;;;;4986501;28;20431;-74
2022/08/30 02:16:08;;;;;;;10.10;8.57;;;15.10;99.90;;;;;;4964457;28;20818;-75
2022/08/30 02:18:35;;;;;;;10.20;7.90;;;;;;;;;;4969486;28;20958;-75
2022/08/30 02:21:01;;;;;;;11.15;8.18;;;15.10;99.90;;;;;;4969791;28;20431;-75
2022/08/30 02:23:27;;;;;;;12.85;8.30;;;;;;;;;;4963211;28;21014;-75
2022/08/30 02:25:53;;;;;;;9.80;8.13;;;14.80;99.90;;;;;;4988145;28;20441;-75
2022/08/30 02:28:19;;;;;;;9.65;8.20;;;;;;;;;;4990541;28;20495;-74
2022/08/30 02:30:46;;;;;;;10.73;7.90;;;15.20;99.90;;;;;;4990004;28;20427;-72
2022/08/30 02:33:13;;;;;;;12.73;8.82;;;;;;;;;;4994100;28;20926;-73
2022/08/30 02:35:38;;;;;;;9.93;7.53;;;15.10;99.90;;;;;;5007456;28;20914;-72
2022/08/30 02:38:05;;;;;;;12.52;7.85;;;14.80;99.90;;;;;;4978248;28;20472;-73
2022/08/30 02:40:31;;;;;;;12.15;8.25;;;15.00;99.90;;;;;;4969322;28;20485;-75
2022/08/30 02:42:57;;;;;;;10.40;7.90;;;15.00;99.90;;;;;;4990023;28;20426;-75
2022/08/30 02:45:23;;;;;;;13.73;8.40;;;;;;;;;;4975793;28;20431;-73
2022/08/30 02:47:50;;;;;;;8.70;7.70;;;;;;;;;;5003357;28;20428;-73
2022/08/30 02:50:16;;;;;;;9.90;7.37;;;14.50;99.90;;;;;;4956598;28;20507;-73
2022/08/30 02:52:42;;;;;;;13.57;8.23;;;;;;;;;;5003951;28;20433;-73
2022/08/30 02:55:08;;;;;;;10.88;8.25;;;;;;;;;;4974021;28;20786;-73
2022/08/30 02:57:34;;;;;;;10.93;7.90;;;14.60;99.90;;;;;;4958682;28;20514;-74
2022/08/30 03:00:00;;;;;;;12.43;8.45;;;14.50;99.90;;;;;;4957226;28;20519;-73
2022/08/30 03:02:27;;;;;;;12.30;8.03;;;;;;;;;;4974242;28;20976;-73
2022/08/30 03:04:56;;;;;;;11.73;8.30;;;;;;;;;;4978826;28;20512;-73
2022/08/30 03:07:22;;;;;;;12.10;8.80;;;14.30;99.90;;;;;;4990507;28;20455;-73
2022/08/30 03:09:47;;;;;;;11.83;8.67;;;14.50;99.90;;;;;;4957358;28;20428;-74
2022/08/30 03:12:13;;;;;;;13.10;8.43;;;;;;;;;;4972452;28;20770;-74
2022/08/30 03:14:39;;;;;;;10.90;7.90;;;;;;;;;;4973547;28;20469;-73
2022/08/30 03:17:07;;;;;;;10.13;7.83;;;14.30;99.90;;;;;;4977361;28;20442;-73
2022/08/30 03:19:35;;;;;;;10.13;7.30;;;14.20;99.90;;;;;;4973960;28;20422;-74
2022/08/30 03:22:04;;;;;;;12.38;7.50;;;14.30;99.90;;;;;;4959614;28;20426;-74
2022/08/30 03:24:30;;;;;;;12.02;7.68;;;;;;;;;;4989040;28;20470;-74
2022/08/30 03:26:56;;;;;;;10.07;7.60;;;;;;;;;;4956456;28;20426;-74
2022/08/30 03:29:23;;;;;;;9.98;8.38;;;;;;;;;;4960785;28;20509;-74
2022/08/30 03:31:49;;;;;;;13.60;8.27;;;;;;;;;;4976978;28;20409;-74
2022/08/30 03:34:15;;;;;;;10.82;8.27;;;;;;;;;;4998352;28;20428;-74
2022/08/30 03:36:42;;;;;;;12.40;8.15;;;;;;;;;;4989706;28;20514;-75
2022/08/30 03:39:08;;;;;;;13.13;9.43;;;14.00;99.90;;;;;;4976524;28;20433;-74
2022/08/30 03:41:34;;;;;;;13.63;8.82;;;;;;;;;;4974816;28;20422;-75
2022/08/30 03:44:01;;;;;;;14.32;9.18;;;;;;;;;;4973577;28;20781;-75
2022/08/30 03:46:28;;;;;;;13.57;8.52;;;14.00;99.90;;;;;;4973757;28;20426;-75
2022/08/30 03:48:57;;;;;;;12.95;8.40;;;;;;;;;;4960800;28;20428;-74
2022/08/30 03:51:24;;;;;;;14.23;8.45;;;;;;;;;;4989613;28;20490;-74
2022/08/30 03:53:50;;;;;;;11.25;7.75;;;;;;;;;;4982880;28;20988;-74
2022/08/30 03:56:17;;;;;;;10.88;7.38;;;;;;;;;;4977865;28;20498;-74
2022/08/30 03:58:43;;;;;;;10.45;7.80;;;;;;;;;;4957245;28;20911;-74
2022/08/30 04:01:09;;;;;;;10.32;7.53;;;;;;;;;;4999271;28;20587;-75
2022/08/30 04:03:36;;;;;;;11.38;7.90;;;13.70;99.90;;;;;;4980221;28;20464;-74
2022/08/30 04:06:02;;;;;;;10.15;7.75;;;;;;;;;;4975108;28;20438;-74
2022/08/30 04:08:28;;;;;;;10.82;8.30;;;;;;;;;;5009180;28;20411;-75
2022/08/30 04:10:54;;;;;;;12.10;7.72;;;13.60;99.90;;;;;;5006679;28;20919;-75
2022/08/30 04:13:21;;;;;;;10.65;7.95;;;;;;;;;;4984806;28;20430;-75
2022/08/30 04:15:47;;;;;;;10.70;7.70;;;;;;;;;;4968081;28;20933;-75
2022/08/30 04:18:14;;;;;;;9.90;8.07;;;;;;;;;;4973500;28;20419;-75
2022/08/30 04:20:40;;;;;;;8.65;6.55;;;;;;;;;;4957054;28;20416;-75
2022/08/30 04:23:06;;;;;;;8.13;5.90;;;;;;;;;;4958579;28;20420;-75
2022/08/30 04:25:37;;;;;;;10.50;6.72;;;13.50;99.90;;;;;;5005982;28;20430;-75
2022/08/30 04:28:03;;;;;;;10.75;6.97;;;;;;;;;;5006633;28;20509;-75
2022/08/30 04:30:29;;;;;;;8.98;7.03;;;;;;;;;;4964020;28;20440;-76
2022/08/30 04:32:56;;;;;;;10.98;7.53;;;;;;;;;;4954589;28;20429;-76
2022/08/30 04:35:22;;;;;;;11.20;7.78;;;13.20;99.90;;;;;;4971097;28;20458;-76
2022/08/30 04:37:48;;;;;;;10.27;7.38;;;;;;;;;;5004735;28;20850;-76
2022/08/30 04:40:14;;;;;;;9.63;7.55;;;;;;;;;;4970835;28;20433;-77
2022/08/30 04:42:42;;;;;;;12.00;8.00;;;13.60;99.90;;;;;;5005812;28;20421;-77
2022/08/30 04:45:09;;;;;;;10.93;8.07;;;;;;;;;;4952571;28;20926;-77
2022/08/30 04:47:36;;;;;;;14.25;7.90;;;;;;;;;;4990553;28;20422;-75
2022/08/30 04:50:02;;;;;;;10.40;7.05;;;;;;;;;;4975032;28;20473;-76
2022/08/30 04:52:28;;;;;;;8.97;6.87;;;;;;;;;;4972800;28;20498;-77
2022/08/30 04:54:55;;;;;;;11.10;7.35;;;;;;;;;;4977677;28;20543;-77
2022/08/30 04:57:21;;;;;;;10.63;7.17;;;;;;;;;;4972499;28;20426;-77
2022/08/30 04:59:47;;;;;;;10.88;7.20;;;;;;;;;;4975706;28;20410;-77
2022/08/30 05:02:13;;;;;;;10.38;6.57;;;;;;;;;;5003608;28;20433;-76
2022/08/30 05:05:38;;;;;;;10.17;7.20;;;;;;;;;;4958898;28;20490;-77
2022/08/30 05:07:29;;;;;;;11.30;8.40;;;13.10;99.90;;;;;;4970816;28;20437;-77
2022/08/30 05:09:55;;;;;;;9.93;7.35;;;;;;;;;;4976379;28;20749;-76
2022/08/30 05:12:22;;;;;;;12.20;7.70;;;;;;;;;;4971451;28;20432;-77
2022/08/30 05:14:48;;;;;;;11.98;7.85;;;;;;;;;;4982062;28;20901;-76
2022/08/30 05:17:14;;;;;;;11.38;7.72;;;;;;;;;;4972995;28;20517;-75
2022/08/30 05:19:40;;;;;;;11.45;8.00;;;;;;;;;;4975186;28;20407;-75
2022/08/30 05:22:06;;;;;;;9.80;7.10;;;;;;;;;;4973769;28;20428;-74
2022/08/30 05:24:32;;;;;;;9.07;7.40;;;;;;;;;;4976631;28;20515;-75
2022/08/30 05:26:58;;;;;;;12.27;7.57;;;;;;;;;;4990233;28;20428;-75
2022/08/30 05:29:26;;;;;;;12.82;7.07;;;13.30;99.90;;;;;;4971244;28;20827;-75
2022/08/30 05:31:51;;;;;;;13.15;7.72;;;13.30;99.90;;;;;;4954924;28;20436;-75
2022/08/30 05:34:18;;;;;;;10.05;7.47;;;;;;;;;;4998076;28;20783;-76
2022/08/30 05:36:44;;;;;;;10.02;7.43;;;;;;;;;;4964669;28;20470;-76
2022/08/30 05:39:10;;;;;;;11.25;7.70;;;;;;;;;;4938134;29;20429;-76
2022/08/30 05:41:37;;;;;;;10.35;7.90;;;;;;;;;;4972958;28;20451;-76
2022/08/30 05:44:05;;;;;;;10.57;7.65;;;13.70;99.90;;;;;;4999112;28;20442;-74
2022/08/30 05:46:31;;;;;;;10.85;7.30;;;;;;;;;;4986756;28;20480;-75
2022/08/30 05:49:00;;;;;;;10.80;7.75;;;;;;;;;;4981006;28;20454;-76
2022/08/30 05:51:27;;;;;;;10.73;7.40;;;;;;;;;;4971898;28;20901;-76
2022/08/30 05:53:54;;;;;;;11.60;7.47;;;14.00;99.90;;;;;;4971459;28;20466;-76
2022/08/30 05:56:26;;;;;;;9.70;6.97;;;14.10;99.90;;;;;;4984706;28;20476;-76
2022/08/30 05:58:53;;;;;;;9.52;6.53;;;14.10;99.90;;;;;;4972705;28;20445;-76
2022/08/30 06:01:32;;;;;;;9.87;6.53;;;14.30;99.90;;;;;;4974770;28;20450;-75
2022/08/30 06:04:00;;;;;;;9.65;6.43;;;14.60;99.90;;;;;;4951272;28;20941;-75
2022/08/30 06:06:26;;;;;;;9.60;6.37;;;;;;;;;;4943209;28;20435;-75
2022/08/30 06:08:53;;;;;;;9.60;6.07;;;;;;;;;;4957537;28;20896;-75
2022/08/30 06:11:20;;;;;;;10.43;6.43;;;;;;;;;;4958378;28;20407;-76
2022/08/30 06:13:46;;;;;;;10.63;6.30;;;14.40;99.90;;;;;;4976603;28;20422;-76
2022/08/30 06:16:14;;;;;;;11.15;5.90;;;15.00;99.90;;;;;;4960539;28;20824;-76
2022/08/30 06:18:39;;;;;;;10.20;5.80;;;14.80;99.90;;;;;;5010791;28;20402;-76
2022/08/30 06:21:06;;;;;;;10.03;5.23;;;15.10;99.90;;;;;;4981542;28;20511;-75
2022/08/30 06:23:32;;;;;;;7.75;5.15;;;;;;;;;;4958930;28;20888;-76
2022/08/30 06:26:06;;;;;;;9.00;5.15;;;;;;;;;;4955436;28;20440;-76
2022/08/30 06:28:32;;;;;;;6.43;4.65;;;;;;;;;;4972557;28;20428;-76
2022/08/30 06:30:58;;;;;;;11.23;5.45;;;;;;;;;;4972749;28;20456;-76
2022/08/30 06:33:24;;;;;;;10.30;5.13;;;15.70;99.90;;;;;;4969801;28;20434;-77
2022/08/30 06:35:50;;;;;;;9.23;4.97;;;;;;;;;;4955409;28;20491;-76
2022/08/30 06:38:16;;;;;;;7.90;4.50;;;;;;;;;;4956289;28;20486;-76
2022/08/30 06:40:42;;;;;;;9.07;4.80;;;;;;;;;;4971664;28;20499;-75
2022/08/30 06:43:08;;;;;;;10.70;4.20;;;;;;;;;;4954826;28;20442;-76
2022/08/30 06:45:35;;;;;;;9.00;4.20;;;;;;;;;;4974423;28;20779;-76
2022/08/30 06:48:01;;;;;;;8.52;4.32;;;;;;;;;;4945632;28;20568;-76
2022/08/30 06:50:28;;;;;;;8.57;4.28;;;;;;;;;;4971412;28;20427;-77
2022/08/30 06:52:54;;;;;;;8.85;3.97;;;;;;;;;;4975192;28;20407;-75
2022/08/30 06:55:20;;;;;;;7.50;4.10;;;;;;;;;;4963219;28;20443;-76
2022/08/30 06:57:46;;;;;;;5.97;3.75;;;;;;;;;;4950840;28;20439;-74
2022/08/30 07:00:15;;;;;;;7.72;4.00;;;;;;;;;;4947742;28;20437;-75
2022/08/30 07:02:41;;;;;;;5.68;3.55;;;16.80;99.90;;;;;;4936342;29;20912;-75
2022/08/30 07:05:10;;;;;;;7.20;3.47;;;;;;;;;;4957388;28;20517;-74
2022/08/30 07:07:37;;;;;;;6.38;3.70;;;16.90;99.90;;;;;;4957187;28;20432;-75
2022/08/30 07:10:07;;;;;;;6.18;3.33;;;17.20;99.90;;;;;;4948593;28;20766;-75
2022/08/30 07:12:33;;;;;;;8.75;4.13;;;;;;;;;;4969566;28;20421;-75
2022/08/30 07:15:00;;;;;;;6.38;3.47;;;17.70;99.90;;;;;;4939721;28;20514;-75
2022/08/30 07:20:10;;;;;;;5.87;3.30;;;;;;;;;;4961783;28;20441;-78
2022/08/30 07:22:36;;;;;;;6.03;3.50;;;;;;;;;;4961057;28;20459;-76
2022/08/30 07:25:02;;;;;;;5.22;3.28;;;17.90;99.90;;;;;;4955609;28;20865;-76
2022/08/30 07:27:28;;;;;;;7.15;3.45;;;;;;;;;;4966090;28;20455;-76
2022/08/30 07:29:54;;;;;;;5.85;3.03;;;18.10;99.90;;;;;;4969165;28;20434;-75
2022/08/30 07:32:20;;;;;;;6.20;2.90;;;18.40;99.90;;;;;;4956800;28;20551;-76
2022/08/30 07:34:46;;;;;;;4.20;2.57;;;;;;;;;;4968669;28;20445;-75
2022/08/30 07:37:12;;;;;;;5.82;2.63;;;18.80;99.90;;;;;;4970297;28;20437;-75
2022/08/30 07:39:37;;;;;;;4.55;2.10;;;18.90;99.90;;;;;;4971221;28;20600;-75
2022/08/30 07:42:03;;;;;;;3.72;1.98;;;18.60;99.90;;;;;;4971066;28;20461;-76
2022/08/30 07:44:29;;;;;;;6.10;2.10;;;18.90;99.90;;;;;;4974803;28;20493;-77
2022/08/30 07:46:55;;;;;;;5.00;2.00;;;19.40;99.90;;;;;;4993041;28;20829;-76
2022/08/30 07:49:20;;;;;;;3.78;1.70;;;19.10;99.90;;;;;;4973305;28;20784;-76
2022/08/30 07:51:46;;;;;;;6.50;1.73;;;19.20;99.90;;;;;;5006489;28;20501;-77
2022/08/30 07:54:12;;;;;;;5.13;1.57;;;19.20;99.90;;;;;;4991066;28;20418;-75
2022/08/30 07:56:38;;;;;;;3.03;1.60;;;19.40;99.90;;;;;;4992829;28;20421;-75
2022/08/30 07:59:04;;;;;;;3.42;1.70;;;19.40;99.90;;;;;;4960796;28;20413;-75
2022/08/30 08:01:30;;;;;;;4.45;1.70;;;19.40;99.90;;;;;;4975193;28;20500;-75
2022/08/30 08:03:55;;;;;;;3.35;1.60;;;19.80;99.90;;;;;;5009308;28;20406;-76
2022/08/30 08:06:22;;;;;;;3.92;1.50;;;19.80;99.90;;;;;;4957667;28;20896;-76
2022/08/30 08:08:49;;;;;;;3.95;1.48;;;19.70;99.90;;;;;;4989314;28;20415;-77
2022/08/30 08:11:17;;;;;;;4.65;1.83;;;19.70;99.90;;;;;;4955094;28;20433;-76
2022/08/30 08:13:44;;;;;;;6.63;1.90;;;19.30;99.90;;;;;;4966077;28;20583;-76
2022/08/30 08:16:10;;;;;;;5.05;1.55;;;19.80;99.90;;;;;;4963087;28;20436;-75
2022/08/30 08:18:36;;;;;;;5.70;1.73;;;19.70;99.90;;;;;;4972429;28;20404;-76
2022/08/30 08:21:02;;;;;;;7.35;2.10;;;19.40;99.90;;;;;;4955291;28;20508;-74
2022/08/30 08:23:27;;;;;;;8.80;2.10;;;19.80;99.90;;;;;;4972501;28;20503;-75
2022/08/30 08:25:53;;;;;;;3.95;2.00;;;19.40;99.90;;;;;;4958167;28;20915;-75
2022/08/30 08:28:20;;;;;;;3.97;1.90;;;;;;;;;;4971369;28;20428;-75
2022/08/30 08:30:47;;;;;;;4.03;1.88;;;19.50;99.90;;;;;;4986803;28;20432;-75
2022/08/30 08:33:13;;;;;;;5.30;1.80;;;19.70;99.90;;;;;;4988378;28;20483;-76
2022/08/30 08:35:39;;;;;;;4.28;1.85;;;19.60;99.90;;;;;;4970856;28;20436;-76
2022/08/30 08:38:05;;;;;;;4.77;1.80;;;19.90;99.90;;;;;;4959983;28;20426;-76
2022/08/30 08:40:44;;;;;;;3.17;1.73;;;20.30;99.90;;;;;;4962506;28;20755;-75
2022/08/30 08:43:13;;;;;;;4.60;1.60;;;20.50;99.90;;;;;;4956162;28;20489;-76
2022/08/30 08:45:45;;;;;;;4.13;1.45;;;20.90;99.90;;;;;;4947504;28;20437;-75
2022/08/30 08:48:27;;;;;;;4.38;1.50;;;20.10;99.90;;;;;;4971837;28;20426;-75
2022/08/30 08:53:38;;;;;;;4.43;1.80;;;20.60;99.90;;;;;;4980507;28;20804;-75
2022/08/30 08:56:11;;;;;;;4.13;1.50;;;20.70;99.90;;;;;;4966968;28;20438;-76
2022/08/30 08:58:46;;;;;;;3.67;1.65;;;21.20;99.90;;;;;;4956401;28;20441;-76
2022/08/30 09:01:14;;;;;;;4.65;1.65;;;21.00;99.90;;;;;;4955303;28;20481;-76
2022/08/30 09:03:41;;;;;;;4.05;1.50;;;21.10;99.90;;;;;;4997262;28;20438;-76
2022/08/30 09:06:32;;;;;;;2.95;1.40;;;21.20;99.90;;;;;;4954663;28;20441;-77
2022/08/30 09:08:58;;;;;;;3.70;1.77;;;21.20;99.90;;;;;;4960873;28;20495;-75
2022/08/30 09:11:31;;;;;;;4.23;1.40;;;21.00;99.90;;;;;;4964048;28;20459;-76
2022/08/30 09:13:57;;;;;;;4.38;1.60;;;21.30;99.90;;;;;;4987327;28;20479;-75
2022/08/30 09:16:46;;;;;;;3.10;1.37;;;21.20;99.90;;;;;;4969169;28;20511;-76
2022/08/30 09:19:30;;;;;;;2.70;1.40;;;21.50;99.90;;;;;;4982056;28;20435;-76
2022/08/30 09:22:21;;;;;;;3.50;1.55;;;21.90;99.90;;;;;;4975610;28;20430;-76
2022/08/30 09:24:59;;;;;;;4.10;1.50;;;22.00;99.90;;;;;;4940119;28;20438;-77
2022/08/30 09:27:29;;;;;;;4.90;1.43;;;22.10;99.90;;;;;;4987434;28;20477;-77
2022/08/30 09:30:00;;;;;;;4.57;1.40;;;22.00;99.90;;;;;;4976459;28;20425;-77
2022/08/30 09:32:29;;;;;;;3.90;1.70;;;21.90;99.90;;;;;;4961641;28;20993;-77
2022/08/30 09:34:55;;;;;;;4.72;1.40;;;22.10;99.90;;;;;;4976871;28;20430;-76
2022/08/30 09:37:25;;;;;;;3.45;1.50;;;22.00;99.90;;;;;;4978695;28;20436;-76
2022/08/30 09:39:51;;;;;;;3.38;1.40;;;21.50;99.90;;;;;;4962042;28;20444;-75
2022/08/30 09:42:24;;;;;;;5.90;1.52;;;22.00;99.90;;;;;;4976871;28;20487;-76
2022/08/30 09:44:50;;;;;;;3.92;1.40;;;21.60;99.90;;;;;;4957804;28;20940;-77
2022/08/30 09:47:28;;;;;;;3.17;1.33;;;21.30;99.90;;;;;;4966994;28;20435;-76
2022/08/30 09:50:06;;;;;;;2.67;1.50;;;21.20;99.90;;;;;;4967249;28;20457;-77
2022/08/30 09:52:37;;;;;;;3.35;1.63;;;21.90;99.90;;;;;;4961177;28;20432;-76
2022/08/30 09:55:37;;;;;;;3.97;1.60;;;21.60;99.90;;;;;;4953390;28;20434;-77
2022/08/30 09:58:42;;;;;;;5.70;1.42;;;21.60;99.90;;;;;;4968184;28;21025;-76
2022/08/30 10:01:15;;;;;;;4.87;1.93;;;21.80;99.90;;;;;;4968535;28;20498;-75
2022/08/30 10:03:56;;;;;;;3.95;1.60;;;22.00;99.90;;;;;;4981814;28;20526;-75
2022/08/30 10:06:42;;;;;;;4.05;1.70;;;22.60;99.90;;;;;;4987824;28;20412;-76
2022/08/30 10:09:30;;;;;;;2.97;1.48;;;22.50;99.90;;;;;;4992471;28;20474;-76
2022/08/30 10:12:11;;;;;;;3.15;1.83;;;22.10;99.90;;;;;;4965314;28;20499;-76
2022/08/30 10:15:07;;;;;;;3.47;1.90;;;22.40;99.90;;;;;;4951953;28;20452;-75
2022/08/30 10:17:58;;;;;;;3.00;1.50;;;22.70;99.90;;;;;;4989348;28;20430;-76
2022/08/30 10:20:37;;;;;;;3.33;1.38;;;23.10;99.90;;;;;;4963214;28;20432;-76
2022/08/30 10:23:11;;;;;;;4.70;1.40;;;23.30;99.90;;;;;;4982213;28;20782;-76
2022/08/30 10:25:53;;;;;;;4.40;1.33;;;23.20;99.90;;;;;;4986958;28;20468;-75
2022/08/30 10:28:38;;;;;;;3.83;1.55;;;23.00;99.90;;;;;;4970888;28;20524;-75
2022/08/30 10:31:24;;;;;;;2.90;1.40;;;22.80;99.90;;;;;;4987023;28;20495;-76
2022/08/30 10:33:56;;;;;;;5.00;1.40;;;22.30;99.90;;;;;;4957284;28;20420;-76
2022/08/30 10:36:28;;;;;;;3.77;1.50;;;22.40;99.90;;;;;;4987410;28;20503;-76
2022/08/30 10:38:56;;;;;;;3.25;1.33;;;22.20;99.90;;;;;;4952063;29;20414;-76
2022/08/30 10:41:30;;;;;;;2.25;1.30;;;22.10;99.90;;;;;;4959330;28;20462;-76
2022/08/30 10:44:07;;;;;;;3.65;1.50;;;22.70;99.90;;;;;;4989590;28;20416;-77
2022/08/30 10:47:01;;;;;;;3.40;1.50;;;22.90;99.90;;;;;;4972612;28;20920;-77
2022/08/30 10:49:31;;;;;;;5.40;1.60;;;23.50;99.90;;;;;;4956682;28;20584;-77
2022/08/30 10:52:16;;;;;;;3.20;1.63;;;23.10;99.90;;;;;;4963336;28;20498;-77
2022/08/30 10:55:10;;;;;;;3.65;1.40;;;22.50;99.90;;;;;;4965175;28;20433;-76
2022/08/30 10:57:37;;;;;;;3.78;1.30;;;22.80;99.90;;;;;;4979942;28;20441;-76
2022/08/30 11:00:10;;;;;;;4.35;1.20;;;22.70;99.90;;;;;;4984148;28;20469;-76
2022/08/30 11:03:01;;;;;;;4.70;1.83;;;22.80;99.90;;;;;;4965726;28;20513;-77
2022/08/30 11:05:53;;;;;;;3.45;1.30;;;22.40;99.90;;;;;;4954839;28;20432;-77
2022/08/30 11:08:55;;;;;;;3.72;1.50;;;22.80;99.90;;;;;;4986359;28;20443;-77
2022/08/30 11:11:41;;;;;;;5.18;1.40;;;22.60;99.90;;;;;;4960634;28;20431;-77
2022/08/30 11:14:12;;;;;;;2.47;1.23;;;22.50;99.90;;;;;;4989099;28;20585;-78
2022/08/30 11:16:41;;;;;;;3.60;1.50;;;22.90;99.90;;;;;;4977148;28;20417;-78
2022/08/30 11:19:21;;;;;;;6.70;1.40;;;22.80;99.90;;;;;;4969085;28;20426;-77
2022/08/30 11:21:48;;;;;;;3.22;1.40;;;23.00;99.90;;;;;;4967030;28;20431;-78
2022/08/30 11:24:21;;;;;;;3.95;1.40;;;23.40;99.90;;;;;;4968959;28;20934;-77
2022/08/30 11:26:47;;;;;;;2.60;1.20;;;22.90;99.90;;;;;;5004956;28;20434;-78
2022/08/30 11:29:28;;;;;;;3.10;1.20;;;23.10;99.90;;;;;;4976270;28;20435;-77
2022/08/30 11:31:55;;;;;;;3.65;1.48;;;23.20;99.90;;;;;;4975326;28;20410;-77
2022/08/30 11:34:43;;;;;;;4.78;1.48;;;23.30;99.90;;;;;;4970893;28;20591;-77
2022/08/30 11:37:10;;;;;;;2.35;1.30;;;23.40;99.90;;;;;;4990483;28;20824;-77
2022/08/30 11:39:48;;;;;;;3.55;1.60;;;23.00;99.90;;;;;;4989663;28;20552;-77
2022/08/30 11:42:32;;;;;;;2.03;1.15;;;23.30;99.90;;;;;;4969238;28;20438;-77
2022/08/30 11:45:23;;;;;;;3.05;1.30;;;22.90;99.90;;;;;;4972530;28;20453;-77
2022/08/30 11:47:55;;;;;;;3.63;1.47;;;23.30;99.90;;;;;;4957620;28;20526;-77
2022/08/30 11:50:40;;;;;;;3.72;1.50;;;23.50;99.90;;;;;;4961981;28;20419;-77
2022/08/30 11:53:20;;;;;;;2.95;1.20;;;23.50;99.90;;;;;;4975547;28;20483;-78
2022/08/30 11:55:52;;;;;;;4.78;1.60;;;23.10;99.90;;;;;;4976440;28;20464;-78
2022/08/30 11:58:41;;;;;;;4.97;1.42;;;23.20;99.90;;;;;;4956101;28;20475;-79
2022/08/30 12:01:31;;;;;;;3.03;1.60;;;23.30;99.90;;;;;;4961551;28;20426;-78
2022/08/30 12:04:06;;;;;;;4.10;1.30;;;22.80;99.90;;;;;;4977807;28;20908;-78
2022/08/30 12:06:50;;;;;;;2.85;1.70;;;23.50;99.90;;;;;;4971130;28;20426;-78
2022/08/30 12:09:22;;;;;;;3.25;1.40;;;23.50;99.90;;;;;;4954412;29;20525;-77
2022/08/30 12:11:54;;;;;;;2.50;1.30;;;23.90;99.90;;;;;;4973919;28;20482;-78
2022/08/30 12:14:56;;;;;;;3.58;1.30;;;24.30;99.90;;;;;;4970135;28;20456;-77
2022/08/30 12:20:46;;;;;;;2.65;1.20;;;24.10;99.90;;;;;;4995825;28;20503;-76
2022/08/30 12:23:29;;;;;;;2.55;1.30;;;24.10;99.90;;;;;;4968053;28;20438;-74
2022/08/30 12:26:23;;;;;;;3.38;1.40;;;24.00;99.90;;;;;;4969387;28;20444;-77
2022/08/30 12:28:51;;;;;;;3.55;1.50;;;24.20;99.90;;;;;;4971583;28;20430;-77
2022/08/30 12:31:23;;;;;;;2.60;1.20;;;24.50;99.90;;;;;;4961586;28;20431;-76
2022/08/30 12:34:01;;;;;;;3.13;1.40;;;23.90;99.90;;;;;;4999597;28;20885;-77
2022/08/30 12:36:57;;;;;;;3.70;1.30;;;24.30;99.90;;;;;;4951879;28;20426;-77
2022/08/30 12:39:35;;;;;;;3.93;1.60;;;24.10;99.90;;;;;;4974923;28;20462;-78
2022/08/30 12:42:23;;;;;;;2.38;1.23;;;24.40;99.90;;;;;;4964130;28;20988;-77
2022/08/30 12:44:56;;;;;;;3.47;1.50;;;24.40;99.90;;;;;;4985153;28;20432;-78
2022/08/30 12:47:51;;;;;;;3.17;1.60;;;25.00;99.90;;;;;;4973358;28;20780;-78
2022/08/30 12:50:21;;;;;;;4.53;1.52;;;25.10;99.90;;;;;;4957538;28;20408;-77
2022/08/30 12:53:03;;;;;;;2.70;1.30;;;25.00;99.90;;;;;;4956984;28;20553;-77
2022/08/30 12:55:32;;;;;;;3.22;1.40;;;24.80;99.90;;;;;;4961091;28;21208;-77
2022/08/30 12:57:59;;;;;;;5.15;1.40;;;24.70;99.90;;;;;;4945728;28;20439;-77
2022/08/30 13:00:34;;;;;;;2.20;1.23;;;24.40;99.90;;;;;;4989686;28;20469;-78
2022/08/30 13:03:04;;;;;;;4.13;1.40;;;24.40;99.90;;;;;;4975528;28;20415;-78
2022/08/30 13:05:39;;;;;;;2.72;1.20;;;25.00;99.90;;;;;;4987263;28;20438;-77
2022/08/30 13:08:15;;;;;;;2.57;1.30;;;25.20;99.90;;;;;;4980391;28;20469;-77
2022/08/30 13:11:05;;;;;;;4.43;1.30;;;24.60;99.90;;;;;;4989109;28;20412;-77
2022/08/30 13:13:50;;;;;;;7.20;1.63;;;24.90;99.90;;;;;;4940794;28;20485;-76
2022/08/30 13:16:20;;;;;;;3.15;1.80;;;24.80;99.90;;;;;;4975917;28;20406;-77
2022/08/30 13:18:49;;;;;;;2.50;1.20;;;24.20;99.90;;;;;;4946980;28;20432;-77
2022/08/30 13:21:32;;;;;;;4.70;1.27;;;24.30;99.90;;;;;;4988592;28;20428;-77
2022/08/30 13:24:01;;;;;;;2.10;1.20;;;23.40;99.90;;;;;;4977460;28;20434;-77
2022/08/30 13:26:30;;;;;;;4.85;1.50;;;25.00;99.90;;;;;;4954389;28;20513;-77
2022/08/30 13:29:01;;;;;;;2.53;1.30;;;25.00;99.90;;;;;;4955695;28;20803;-78
2022/08/30 13:31:29;;;;;;;2.50;1.20;;;24.50;99.90;;;;;;4959259;28;20770;-78
2022/08/30 13:33:55;;;;;;;2.90;1.20;;;24.60;99.90;;;;;;4945511;28;20487;-78
2022/08/30 13:36:27;;;;;;;2.90;1.25;;;24.80;99.90;;;;;;4987409;28;20464;-76
2022/08/30 13:38:53;;;;;;;2.35;1.40;;;24.40;99.90;;;;;;4987542;28;20441;-79
2022/08/30 13:41:20;;;;;;;3.50;1.38;;;24.50;99.90;;;;;;4995877;28;20987;-79
2022/08/30 13:43:46;;;;;;;3.38;1.30;;;23.90;99.90;;;;;;4961849;28;20782;-79
2022/08/30 13:46:14;;;;;;;3.63;1.20;;;24.10;99.90;;;;;;4967595;28;20448;-79
2022/08/30 13:48:40;;;;;;;2.13;1.30;;;23.60;99.90;;;;;;4960100;28;20452;-79